createdAt,value
2023-09-05T00:02:13.112Z,2.60
2023-09-05T00:04:43.921Z,2.80
2023-09-05T00:07:12.362Z,2.77
2023-09-05T00:09:40.672Z,2.40
2023-09-05T00:12:10.663Z,2.67
2023-09-05T00:14:42.106Z,2.70
2023-09-05T00:17:10.446Z,2.60
2023-09-05T00:19:38.784Z,2.67
2023-09-05T00:22:08.560Z,2.80
2023-09-05T00:24:41.245Z,2.50
2023-09-05T00:27:12.918Z,3.20
2023-09-05T00:29:42.298Z,2.50
2023-09-05T00:32:11.198Z,2.73
2023-09-05T00:34:40.603Z,3.00
2023-09-05T00:37:11.550Z,2.83
2023-09-05T00:39:42.101Z,2.40
2023-09-05T00:42:12.670Z,2.77
2023-09-05T00:44:41.184Z,2.73
2023-09-05T00:47:12.404Z,3.10
2023-09-05T00:49:42.877Z,2.30
2023-09-05T00:52:13.275Z,2.57
2023-09-05T00:54:42.162Z,2.60
2023-09-05T00:57:16.981Z,2.70
2023-09-05T00:59:46.111Z,2.37
2023-09-05T01:02:14.499Z,2.63
2023-09-05T01:04:44.504Z,2.53
2023-09-05T01:07:21.268Z,2.87
2023-09-05T01:10:00.975Z,2.47
2023-09-05T01:12:29.957Z,2.47
2023-09-05T01:14:58.356Z,3.00
2023-09-05T01:17:26.624Z,2.90
2023-09-05T01:19:58.762Z,2.50
2023-09-05T01:22:37.430Z,2.73
2023-09-05T01:25:09.396Z,2.47
2023-09-05T01:27:37.814Z,2.57
2023-09-05T01:30:09.346Z,2.73
2023-09-05T01:32:37.748Z,2.77
2023-09-05T01:35:10.444Z,2.50
2023-09-05T01:37:38.770Z,2.87
2023-09-05T01:40:10.571Z,2.60
2023-09-05T01:42:39.639Z,2.57
2023-09-05T01:45:09.020Z,2.30
2023-09-05T01:47:37.363Z,2.80
2023-09-05T01:50:06.616Z,2.80
2023-09-05T01:52:34.965Z,2.70
2023-09-05T01:55:03.272Z,2.43
2023-09-05T01:57:33.389Z,2.50
2023-09-05T02:00:01.711Z,2.73
2023-09-05T02:02:30.097Z,2.30
2023-09-05T02:04:58.526Z,2.43
2023-09-05T02:07:29.767Z,2.20
2023-09-05T02:09:58.072Z,2.73
2023-09-05T02:12:31.363Z,2.50
2023-09-05T02:15:01.408Z,2.37
2023-09-05T02:17:31.948Z,2.50
2023-09-05T02:20:00.408Z,2.77
2023-09-05T02:22:28.716Z,2.90
2023-09-05T02:24:57.107Z,2.80
2023-09-05T02:27:25.405Z,3.00
2023-09-05T02:29:59.768Z,2.73
2023-09-05T02:32:30.647Z,3.00
2023-09-05T02:34:59.541Z,2.57
2023-09-05T02:37:28.839Z,2.60
2023-09-05T02:39:57.203Z,2.40
2023-09-05T02:42:28.164Z,2.60
2023-09-05T02:44:56.503Z,2.60
2023-09-05T02:47:24.879Z,2.47
2023-09-05T02:49:54.574Z,2.47
2023-09-05T02:52:37.965Z,2.57
2023-09-05T02:55:10.704Z,2.50
2023-09-05T02:57:41.711Z,2.50
2023-09-05T03:00:11.396Z,2.33
2023-09-05T03:02:41.573Z,2.70
2023-09-05T03:05:15.889Z,2.63
2023-09-05T03:07:44.183Z,3.00
2023-09-05T03:10:12.643Z,2.83
2023-09-05T03:12:41.050Z,2.93
2023-09-05T03:15:10.512Z,3.10
2023-09-05T03:17:38.820Z,2.40
2023-09-05T03:20:09.204Z,2.80
2023-09-05T03:22:38.943Z,2.53
2023-09-05T03:25:08.066Z,2.80
2023-09-05T03:27:36.325Z,3.00
2023-09-05T03:30:05.375Z,2.57
2023-09-05T03:32:33.779Z,2.33
2023-09-05T03:35:02.203Z,2.73
2023-09-05T03:37:30.484Z,2.47
2023-09-05T03:40:00.290Z,2.80
2023-09-05T03:42:29.417Z,2.70
2023-09-05T03:44:57.751Z,2.63
2023-09-05T03:47:26.169Z,2.43
2023-09-05T03:49:54.486Z,2.87
2023-09-05T03:52:22.773Z,2.90
2023-09-05T03:54:53.878Z,2.80
2023-09-05T03:57:23.598Z,2.80
2023-09-05T03:59:51.906Z,2.73
2023-09-05T04:02:20.226Z,2.60
2023-09-05T04:04:48.598Z,2.70
2023-09-05T04:07:16.870Z,2.90
2023-09-05T04:09:45.183Z,2.83
2023-09-05T04:12:13.483Z,2.83
2023-09-05T04:14:43.177Z,2.80
2023-09-05T04:17:11.435Z,2.93
2023-09-05T04:19:39.785Z,2.80
2023-09-05T04:22:08.149Z,2.37
2023-09-05T04:24:39.529Z,2.53
2023-09-05T04:27:07.997Z,2.83
2023-09-05T04:29:39.257Z,3.03
2023-09-05T04:32:09.114Z,2.87
2023-09-05T04:34:37.376Z,3.00
2023-09-05T04:37:06.063Z,3.00
2023-09-05T04:39:38.372Z,2.47
2023-09-05T04:42:08.759Z,2.57
2023-09-05T04:44:37.058Z,2.40
2023-09-05T04:47:24.276Z,2.80
2023-09-05T04:49:53.720Z,3.23
2023-09-05T04:52:25.094Z,3.10
2023-09-05T04:55:01.036Z,2.70
2023-09-05T04:57:30.671Z,2.90
2023-09-05T05:00:01.362Z,2.40
2023-09-05T05:02:32.870Z,2.53
2023-09-05T05:05:01.262Z,2.83
2023-09-05T05:07:29.763Z,3.33
2023-09-05T05:09:58.089Z,2.90
2023-09-05T05:12:26.477Z,3.17
2023-09-05T05:14:54.819Z,2.60
2023-09-05T05:17:23.144Z,2.90
2023-09-05T05:19:52.939Z,2.57
2023-09-05T05:22:21.330Z,2.73
2023-09-05T05:24:50.132Z,2.90
2023-09-05T05:27:18.599Z,2.73
2023-09-05T05:29:47.101Z,3.00
2023-09-05T05:32:15.366Z,2.77
2023-09-05T05:34:43.655Z,2.70
2023-09-05T05:37:13.352Z,3.20
2023-09-05T05:39:41.605Z,3.30
2023-09-05T05:42:09.936Z,3.40
2023-09-05T05:44:38.232Z,3.13
2023-09-05T05:47:06.858Z,2.90
2023-09-05T05:49:35.220Z,3.37
2023-09-05T05:52:04.039Z,3.10
2023-09-05T05:54:34.164Z,3.60
2023-09-05T05:57:05.444Z,3.10
2023-09-05T05:59:33.766Z,3.40
2023-09-05T06:02:02.060Z,3.20
2023-09-05T06:04:30.437Z,3.03
2023-09-05T06:06:58.787Z,3.60
2023-09-05T06:09:27.188Z,3.30
2023-09-05T06:11:56.916Z,3.80
2023-09-05T06:14:25.358Z,3.43
2023-09-05T06:16:53.801Z,3.60
2023-09-05T06:19:25.179Z,3.90
2023-09-05T06:21:53.569Z,3.70
2023-09-05T06:24:21.943Z,3.60
2023-09-05T06:26:53.065Z,3.57
2023-09-05T06:29:22.696Z,3.67
2023-09-05T06:31:53.857Z,2.97
2023-09-05T06:34:22.102Z,3.83
2023-09-05T06:36:50.427Z,3.93
2023-09-05T06:39:18.812Z,3.47
2023-09-05T06:41:47.194Z,2.80
2023-09-05T06:44:16.410Z,3.20
2023-09-05T06:46:46.152Z,2.97
2023-09-05T06:49:14.515Z,3.60
2023-09-05T06:51:42.971Z,3.03
2023-09-05T06:54:11.307Z,3.13
2023-09-05T06:56:39.678Z,3.83
2023-09-05T06:59:18.667Z,3.00
2023-09-05T07:01:48.736Z,3.20
2023-09-05T07:04:17.107Z,2.97
2023-09-05T07:06:48.980Z,2.93
2023-09-05T07:09:17.291Z,3.40
2023-09-05T07:11:45.617Z,3.20
2023-09-05T07:14:13.920Z,3.30
2023-09-05T07:16:42.213Z,2.70
2023-09-05T07:19:11.984Z,3.23
2023-09-05T07:21:41.759Z,3.23
2023-09-05T07:24:13.327Z,2.63
2023-09-05T07:26:42.500Z,3.17
2023-09-05T07:29:12.162Z,3.17
2023-09-05T07:31:41.195Z,3.00
2023-09-05T07:34:11.207Z,2.80
2023-09-05T07:36:40.678Z,2.70
2023-09-05T07:39:11.236Z,2.90
2023-09-05T07:41:42.221Z,3.30
2023-09-05T07:44:10.618Z,3.00
2023-09-05T07:46:38.992Z,2.83
2023-09-05T07:49:07.510Z,3.37
2023-09-05T07:51:37.258Z,3.10
2023-09-05T07:54:08.969Z,3.13
2023-09-05T07:56:37.322Z,3.30
2023-09-05T07:59:07.233Z,3.47
2023-09-05T08:01:35.753Z,3.27
2023-09-05T08:04:04.259Z,2.60
2023-09-05T08:06:32.804Z,3.03
2023-09-05T08:09:02.466Z,3.03
2023-09-05T08:11:30.797Z,2.83
2023-09-05T08:13:59.384Z,3.10
2023-09-05T08:16:28.451Z,3.30
2023-09-05T08:18:56.787Z,3.70
2023-09-05T08:21:27.723Z,3.00
2023-09-05T08:23:56.135Z,3.07
2023-09-05T08:26:26.295Z,3.10
2023-09-05T08:28:54.979Z,3.03
2023-09-05T08:31:25.880Z,2.50
2023-09-05T08:33:54.387Z,3.07
2023-09-05T08:36:23.022Z,2.77
2023-09-05T08:38:51.295Z,3.23
2023-09-05T08:41:19.590Z,3.33
2023-09-05T08:43:49.296Z,3.63
2023-09-05T08:46:21.563Z,3.63
2023-09-05T08:48:54.984Z,2.90
2023-09-05T08:51:27.862Z,3.10
2023-09-05T08:53:58.633Z,3.17
2023-09-05T08:56:28.093Z,2.73
2023-09-05T08:58:58.956Z,3.23
2023-09-05T09:01:33.476Z,2.70
2023-09-05T09:04:03.101Z,3.07
2023-09-05T09:06:31.432Z,3.30
2023-09-05T09:08:59.826Z,2.80
2023-09-05T09:11:28.203Z,3.00
2023-09-05T09:14:02.388Z,2.80
2023-09-05T09:16:30.980Z,2.80
2023-09-05T09:19:04.643Z,3.20
2023-09-05T09:21:36.204Z,3.10
2023-09-05T09:24:11.329Z,3.27
2023-09-05T09:26:42.282Z,2.93
2023-09-05T09:29:13.019Z,3.13
2023-09-05T09:31:44.522Z,3.20
2023-09-05T09:34:14.510Z,3.00
2023-09-05T09:36:42.853Z,3.50
2023-09-05T09:39:12.302Z,3.45
2023-09-05T09:41:46.222Z,3.10
2023-09-05T09:44:29.283Z,3.38
2023-09-05T09:46:59.505Z,3.00
2023-09-05T09:49:31.126Z,3.40
2023-09-05T09:52:06.950Z,3.42
2023-09-05T09:54:40.546Z,3.45
2023-09-05T09:57:11.206Z,2.92
2023-09-05T09:59:50.016Z,3.15
2023-09-05T10:02:19.290Z,2.80
2023-09-05T10:04:50.464Z,2.97
2023-09-05T10:07:20.956Z,3.40
2023-09-05T10:09:49.739Z,3.17
2023-09-05T10:12:20.105Z,3.40
2023-09-05T10:14:51.222Z,3.15
2023-09-05T10:17:22.295Z,2.92
2023-09-05T10:19:52.709Z,3.22
2023-09-05T10:22:21.141Z,3.50
2023-09-05T10:24:50.087Z,3.47
2023-09-05T10:27:18.521Z,3.25
2023-09-05T10:29:51.406Z,3.10
2023-09-05T10:32:24.748Z,3.25
2023-09-05T10:35:04.187Z,2.83
2023-09-05T10:37:54.171Z,3.03
2023-09-05T10:40:35.993Z,3.50
2023-09-05T10:43:07.016Z,3.20
2023-09-05T10:45:38.462Z,3.08
2023-09-05T10:48:13.121Z,2.72
2023-09-05T10:51:12.891Z,3.25
2023-09-05T10:53:42.484Z,3.08
2023-09-05T10:56:39.337Z,3.20
2023-09-05T10:59:12.275Z,3.22
2023-09-05T11:01:58.161Z,3.67
2023-09-05T11:04:31.348Z,3.03
2023-09-05T11:07:06.769Z,3.40
2023-09-05T11:09:50.997Z,3.58
2023-09-05T11:12:21.187Z,3.40
2023-09-05T11:14:49.819Z,3.30
2023-09-05T11:17:20.605Z,3.25
2023-09-05T11:19:50.939Z,3.08
2023-09-05T11:22:23.515Z,2.92
2023-09-05T11:24:59.453Z,3.33
2023-09-05T11:27:30.600Z,3.40
2023-09-05T11:30:01.980Z,3.20
2023-09-05T11:32:33.816Z,3.72
2023-09-05T11:35:04.758Z,3.15
2023-09-05T11:37:33.271Z,3.10
2023-09-05T11:40:13.468Z,3.67
2023-09-05T11:42:42.023Z,3.53
2023-09-05T11:45:21.443Z,3.90
2023-09-05T11:47:53.722Z,3.28
2023-09-05T11:50:22.430Z,3.40
2023-09-05T11:52:52.764Z,3.45
2023-09-05T11:55:22.931Z,3.50
2023-09-05T11:57:53.741Z,3.60
2023-09-05T12:00:22.352Z,3.47
2023-09-05T12:02:53.112Z,3.53
2023-09-05T12:05:21.753Z,3.53
2023-09-05T12:07:53.420Z,3.00
2023-09-05T12:10:22.554Z,3.10
2023-09-05T12:12:59.170Z,3.15
2023-09-05T12:15:31.791Z,3.70
2023-09-05T12:18:04.983Z,3.67
2023-09-05T12:20:34.262Z,2.92
2023-09-05T12:23:03.644Z,3.15
2023-09-05T12:25:42.534Z,3.67
2023-09-05T12:28:21.637Z,3.15
2023-09-05T12:30:51.120Z,3.58
2023-09-05T12:33:21.902Z,3.42
2023-09-05T12:35:50.272Z,3.50
2023-09-05T12:38:18.618Z,3.38
2023-09-05T12:40:47.798Z,3.22
2023-09-05T12:43:17.131Z,3.47
2023-09-05T12:45:45.783Z,3.30
2023-09-05T12:48:14.291Z,3.10
2023-09-05T12:50:46.515Z,3.10
2023-09-05T12:53:14.909Z,3.47
2023-09-05T12:55:45.281Z,3.03
2023-09-05T12:58:13.820Z,3.22
2023-09-05T13:00:48.503Z,3.25
2023-09-05T13:03:17.000Z,2.95
2023-09-05T13:05:47.198Z,3.00
2023-09-05T13:08:15.489Z,3.28
2023-09-05T13:10:43.876Z,3.47
2023-09-05T13:13:12.264Z,3.20
2023-09-05T13:15:44.661Z,3.60
2023-09-05T13:18:13.626Z,3.15
2023-09-05T13:20:42.030Z,2.88
2023-09-05T13:23:16.040Z,2.80
2023-09-05T13:25:44.572Z,3.25
2023-09-05T13:28:13.269Z,3.13
2023-09-05T13:30:41.606Z,3.20
2023-09-05T13:33:10.892Z,3.65
2023-09-05T13:35:39.307Z,3.30
2023-09-05T13:38:07.595Z,2.83
2023-09-05T13:40:37.363Z,3.40
2023-09-05T13:43:06.151Z,2.80
2023-09-05T13:45:35.183Z,3.22
2023-09-05T13:48:03.725Z,3.00
2023-09-05T13:50:32.130Z,3.03
2023-09-05T13:53:00.434Z,3.28
2023-09-05T13:55:29.609Z,3.30
2023-09-05T13:57:59.380Z,3.28
2023-09-05T14:00:27.895Z,3.17
2023-09-05T14:02:56.410Z,4.00
2023-09-05T14:05:25.080Z,3.22
2023-09-05T14:07:56.395Z,3.28
2023-09-05T14:10:24.971Z,3.20
2023-09-05T14:12:53.914Z,3.22
2023-09-05T14:15:23.715Z,2.92
2023-09-05T14:17:52.195Z,2.70
2023-09-05T14:20:22.311Z,3.15
2023-09-05T14:22:50.659Z,3.33
2023-09-05T14:25:19.189Z,2.63
2023-09-05T14:27:47.577Z,3.13
2023-09-05T14:30:16.227Z,2.92
2023-09-05T14:32:46.116Z,2.90
2023-09-05T14:35:14.428Z,3.38
2023-09-05T14:37:42.778Z,2.63
2023-09-05T14:40:13.248Z,3.00
2023-09-05T14:42:41.662Z,3.30
2023-09-05T14:45:12.478Z,2.67
2023-09-05T14:47:41.702Z,2.72
2023-09-05T14:50:12.284Z,2.80
2023-09-05T14:52:40.683Z,2.90
2023-09-05T14:55:11.633Z,3.33
2023-09-05T14:57:40.449Z,2.83
2023-09-05T15:00:12.554Z,3.15
2023-09-05T15:02:41.736Z,2.88
2023-09-05T15:05:11.804Z,3.22
2023-09-05T15:07:41.009Z,2.97
2023-09-05T15:10:10.288Z,2.90
2023-09-05T15:12:39.313Z,2.97
2023-09-05T15:15:09.217Z,3.25
2023-09-05T15:17:39.911Z,3.33
2023-09-05T15:20:11.971Z,3.55
2023-09-05T15:22:40.370Z,3.08
2023-09-05T15:25:16.453Z,3.08
2023-09-05T15:27:46.331Z,3.38
2023-09-05T15:30:17.407Z,3.40
2023-09-05T15:32:47.290Z,3.15
2023-09-05T15:35:17.420Z,2.70
2023-09-05T15:37:46.322Z,3.30
2023-09-05T15:40:14.960Z,3.28
2023-09-05T15:42:43.959Z,3.22
2023-09-05T15:45:12.954Z,2.72
2023-09-05T15:47:41.555Z,2.95
2023-09-05T15:50:11.284Z,3.63
2023-09-05T15:52:41.024Z,3.17
2023-09-05T15:55:10.042Z,3.22
2023-09-05T15:57:38.950Z,2.78
2023-09-05T16:00:09.474Z,3.33
2023-09-05T16:02:37.981Z,2.97
2023-09-05T16:05:07.083Z,3.30
2023-09-05T16:07:35.517Z,2.87
2023-09-05T16:10:07.575Z,2.70
2023-09-05T16:12:36.383Z,2.75
2023-09-05T16:15:05.536Z,3.00
2023-09-05T16:17:33.928Z,3.13
2023-09-05T16:20:02.565Z,3.07
2023-09-05T16:22:30.967Z,2.60
2023-09-05T16:25:01.005Z,2.70
2023-09-05T16:27:31.193Z,2.90
2023-09-05T16:29:59.643Z,2.50
2023-09-05T16:32:28.180Z,2.90
2023-09-05T16:34:57.340Z,3.00
2023-09-05T16:37:25.648Z,2.50
2023-09-05T16:39:54.266Z,3.40
2023-09-05T16:42:22.679Z,2.97
2023-09-05T16:44:52.458Z,3.00
2023-09-05T16:47:20.888Z,3.10
2023-09-05T16:49:49.235Z,3.00
2023-09-05T16:52:17.582Z,3.07
2023-09-05T16:54:46.062Z,3.10
2023-09-05T16:57:15.273Z,2.93
2023-09-05T16:59:43.742Z,3.10
2023-09-05T17:02:13.506Z,3.20
2023-09-05T17:04:41.919Z,2.97
2023-09-05T17:07:10.387Z,2.87
2023-09-05T17:09:39.282Z,3.50
2023-09-05T17:12:08.727Z,3.00
2023-09-05T17:14:37.197Z,2.90
2023-09-05T17:17:06.404Z,2.73
2023-09-05T17:19:36.103Z,2.90
2023-09-05T17:22:04.735Z,3.07
2023-09-05T17:24:34.091Z,3.40
2023-09-05T17:27:02.515Z,3.30
2023-09-05T17:29:31.104Z,3.40
2023-09-05T17:31:59.434Z,3.20
2023-09-05T17:34:28.485Z,2.80
2023-09-05T17:36:58.149Z,2.93
2023-09-05T17:39:26.541Z,3.30
2023-09-05T17:41:54.977Z,3.03
2023-09-05T17:44:23.422Z,3.10
2023-09-05T17:46:51.786Z,6.93
2023-09-05T17:49:22.238Z,4.33
2023-09-05T17:51:51.021Z,5.57
2023-09-05T17:54:21.432Z,5.93
2023-09-05T17:56:49.929Z,3.87
2023-09-05T17:59:20.484Z,4.03
2023-09-05T18:01:49.049Z,3.87
2023-09-05T18:04:17.609Z,3.73
2023-09-05T18:06:48.150Z,4.40
2023-09-05T18:09:18.119Z,5.70
2023-09-05T18:11:47.821Z,5.53
2023-09-05T18:14:19.284Z,5.37
2023-09-05T18:16:48.229Z,5.53
2023-09-05T18:19:17.032Z,5.30
2023-09-05T18:21:45.842Z,4.13
2023-09-05T18:24:14.352Z,4.60
2023-09-05T18:26:50.041Z,3.93
2023-09-05T18:29:20.625Z,3.83
2023-09-05T18:31:49.161Z,3.90
2023-09-05T18:34:39.503Z,4.03
2023-09-05T18:37:07.969Z,3.60
2023-09-05T18:39:37.115Z,4.07
2023-09-05T18:42:08.806Z,3.83
2023-09-05T18:44:39.207Z,4.17
2023-09-05T18:47:08.657Z,3.80
2023-09-05T18:49:38.904Z,3.40
2023-09-05T18:52:09.349Z,4.07
2023-09-05T18:57:12.635Z,3.77
2023-09-05T18:59:41.030Z,3.50
2023-09-05T19:02:11.884Z,3.83
2023-09-05T19:04:40.548Z,3.70
2023-09-05T19:07:10.006Z,3.87
2023-09-05T19:09:40.127Z,3.90
2023-09-05T19:12:09.219Z,4.17
2023-09-05T19:14:38.967Z,3.80
2023-09-05T19:17:07.395Z,3.90
2023-09-05T19:19:35.768Z,3.87
2023-09-05T19:22:05.120Z,3.73
2023-09-05T19:24:34.206Z,4.10
2023-09-05T19:27:02.630Z,3.37
2023-09-05T19:29:30.972Z,4.00
2023-09-05T19:32:01.084Z,3.70
2023-09-05T19:34:29.737Z,3.47
2023-09-05T19:36:58.295Z,3.83
2023-09-05T19:39:29.527Z,4.20
2023-09-05T19:41:59.050Z,3.90
2023-09-05T19:44:27.943Z,3.70
2023-09-05T19:46:56.365Z,4.73
2023-09-05T19:49:26.122Z,4.20
2023-09-05T19:51:54.644Z,4.20
2023-09-05T19:54:23.795Z,3.87
2023-09-05T19:56:52.580Z,3.80
2023-09-05T19:59:21.682Z,4.20
2023-09-05T20:01:51.165Z,3.47
2023-09-05T20:04:19.942Z,3.50
2023-09-05T20:06:50.282Z,3.70
2023-09-05T20:09:18.854Z,3.40
2023-09-05T20:11:47.317Z,3.83
2023-09-05T20:14:15.767Z,3.67
2023-09-05T20:16:47.550Z,3.93
2023-09-05T20:19:16.018Z,3.90
2023-09-05T20:21:44.365Z,4.03
2023-09-05T20:24:14.867Z,3.97
2023-09-05T20:26:43.248Z,4.43
2023-09-05T20:29:11.625Z,5.13
2023-09-05T20:31:40.300Z,4.53
2023-09-05T20:34:08.768Z,4.33
2023-09-05T20:36:45.272Z,3.80
2023-09-05T20:39:15.059Z,4.40
2023-09-05T20:41:43.397Z,4.10
2023-09-05T20:44:14.530Z,3.77
2023-09-05T20:46:42.902Z,3.77
2023-09-05T20:49:11.455Z,3.90
2023-09-05T20:51:41.195Z,3.77
2023-09-05T20:54:12.204Z,4.00
2023-09-05T20:56:42.807Z,3.87
2023-09-05T20:59:11.385Z,3.80
2023-09-05T21:01:40.019Z,3.80
2023-09-05T21:04:09.546Z,3.93
2023-09-05T21:06:38.174Z,4.23
2023-09-05T21:09:06.901Z,3.97
2023-09-05T21:11:35.251Z,3.70
2023-09-05T21:14:05.201Z,3.63
2023-09-05T21:16:33.655Z,3.73
2023-09-05T21:19:02.378Z,4.10
2023-09-05T21:21:33.432Z,3.67
2023-09-05T21:24:01.917Z,3.83
2023-09-05T21:26:30.312Z,3.87
2023-09-05T21:29:00.985Z,3.37
2023-09-05T21:31:31.208Z,3.67
2023-09-05T21:33:59.623Z,4.07
2023-09-05T21:36:30.975Z,4.00
2023-09-05T21:39:01.484Z,3.50
2023-09-05T21:41:29.800Z,4.20
2023-09-05T21:43:58.136Z,4.47
2023-09-05T21:46:26.499Z,4.70
2023-09-05T21:48:56.965Z,4.40
2023-09-05T21:51:25.407Z,4.20
2023-09-05T21:53:54.036Z,3.90
2023-09-05T21:56:24.946Z,4.23
2023-09-05T21:58:54.249Z,4.67
2023-09-05T22:01:22.643Z,3.77
2023-09-05T22:03:56.084Z,4.00
2023-09-05T22:06:28.095Z,4.00
2023-09-05T22:08:57.371Z,4.43
2023-09-05T22:11:25.813Z,3.90
2023-09-05T22:13:54.482Z,3.73
2023-09-05T22:16:36.784Z,3.70
2023-09-05T22:19:20.066Z,3.60
2023-09-05T22:21:48.623Z,3.30
2023-09-05T22:24:17.002Z,3.87
2023-09-05T22:26:45.743Z,3.90
2023-09-05T22:29:14.353Z,4.03
2023-09-05T22:31:42.750Z,4.40
2023-09-05T22:34:11.083Z,4.50
2023-09-05T22:36:43.907Z,3.60
2023-09-05T22:39:12.411Z,3.73
2023-09-05T22:41:41.184Z,4.20
2023-09-05T22:44:09.509Z,4.27
2023-09-05T22:46:41.102Z,4.33
2023-09-05T22:49:09.431Z,3.60
2023-09-05T22:51:38.217Z,4.23
2023-09-05T22:54:09.493Z,3.97
2023-09-05T22:56:40.562Z,3.83
2023-09-05T22:59:08.959Z,3.57
2023-09-05T23:01:37.363Z,4.30
2023-09-05T23:04:06.523Z,3.67
2023-09-05T23:06:38.052Z,3.67
2023-09-05T23:09:08.939Z,3.80
2023-09-05T23:11:38.027Z,4.00
2023-09-05T23:14:06.563Z,3.97
2023-09-05T23:16:36.503Z,3.93
2023-09-05T23:19:09.178Z,3.67
2023-09-05T23:21:37.573Z,4.27
2023-09-05T23:24:10.033Z,4.03
2023-09-05T23:26:39.407Z,4.30
2023-09-05T23:29:08.375Z,3.33
2023-09-05T23:31:36.921Z,3.73
2023-09-05T23:34:05.344Z,3.80
2023-09-05T23:36:33.999Z,4.03
2023-09-05T23:39:05.697Z,3.73
2023-09-05T23:41:38.170Z,4.10
2023-09-05T23:44:08.002Z,3.73
2023-09-05T23:46:37.324Z,3.73
2023-09-05T23:49:11.888Z,4.13
2023-09-05T23:51:41.462Z,4.27
2023-09-05T23:54:10.222Z,4.30
2023-09-05T23:56:40.057Z,3.47
2023-09-05T23:59:09.348Z,3.80
